sensor_id;sensor_type;location;lat;lon;timestamp;P1;durP1;ratioP1;P2;durP2;ratioP2
51618;SDS011;38518;53.164;5.430;2022-11-21T00:00:34;28.33;;;19.75;;
51618;SDS011;38518;53.164;5.430;2022-11-21T00:03:00;27.80;;;24.80;;
51618;SDS011;38518;53.164;5.430;2022-11-21T00:05:27;28.05;;;21.58;;
51618;SDS011;38518;53.164;5.430;2022-11-21T00:07:54;32.22;;;21.35;;
51618;SDS011;38518;53.164;5.430;2022-11-21T00:10:20;33.20;;;22.40;;
51618;SDS011;38518;53.164;5.430;2022-11-21T00:12:47;33.20;;;21.58;;
51618;SDS011;38518;53.164;5.430;2022-11-21T00:15:16;30.77;;;21.95;;
51618;SDS011;38518;53.164;5.430;2022-11-21T00:17:42;27.73;;;24.75;;
51618;SDS011;38518;53.164;5.430;2022-11-21T00:20:08;29.80;;;20.80;;
51618;SDS011;38518;53.164;5.430;2022-11-21T00:22:34;30.52;;;21.20;;
51618;SDS011;38518;53.164;5.430;2022-11-21T00:24:59;30.40;;;22.08;;
51618;SDS011;38518;53.164;5.430;2022-11-21T00:27:25;31.33;;;21.92;;
51618;SDS011;38518;53.164;5.430;2022-11-21T00:29:51;31.15;;;22.45;;
51618;SDS011;38518;53.164;5.430;2022-11-21T00:32:16;29.75;;;21.80;;
51618;SDS011;38518;53.164;5.430;2022-11-21T00:34:42;30.27;;;26.52;;
51618;SDS011;38518;53.164;5.430;2022-11-21T00:37:08;30.27;;;20.83;;
51618;SDS011;38518;53.164;5.430;2022-11-21T00:39:33;31.75;;;21.48;;
51618;SDS011;38518;53.164;5.430;2022-11-21T00:41:59;28.55;;;20.58;;
51618;SDS011;38518;53.164;5.430;2022-11-21T00:44:25;27.45;;;19.92;;
51618;SDS011;38518;53.164;5.430;2022-11-21T00:46:50;29.75;;;21.58;;
51618;SDS011;38518;53.164;5.430;2022-11-21T00:49:16;31.02;;;21.00;;
51618;SDS011;38518;53.164;5.430;2022-11-21T00:51:42;31.92;;;21.52;;
51618;SDS011;38518;53.164;5.430;2022-11-21T00:54:08;28.40;;;21.17;;
51618;SDS011;38518;53.164;5.430;2022-11-21T00:56:33;33.03;;;22.08;;
51618;SDS011;38518;53.164;5.430;2022-11-21T00:58:59;31.92;;;21.83;;
51618;SDS011;38518;53.164;5.430;2022-11-21T01:01:25;29.40;;;26.35;;
51618;SDS011;38518;53.164;5.430;2022-11-21T01:03:50;31.77;;;21.83;;
51618;SDS011;38518;53.164;5.430;2022-11-21T01:06:16;29.98;;;26.80;;
51618;SDS011;38518;53.164;5.430;2022-11-21T01:08:42;30.23;;;27.02;;
51618;SDS011;38518;53.164;5.430;2022-11-21T01:11:16;33.35;;;22.63;;
51618;SDS011;38518;53.164;5.430;2022-11-21T01:13:43;31.60;;;21.55;;
51618;SDS011;38518;53.164;5.430;2022-11-21T01:16:13;29.77;;;21.50;;
51618;SDS011;38518;53.164;5.430;2022-11-21T01:18:41;30.40;;;21.13;;
51618;SDS011;38518;53.164;5.430;2022-11-21T01:21:11;34.83;;;22.90;;
51618;SDS011;38518;53.164;5.430;2022-11-21T01:23:39;32.85;;;23.08;;
51618;SDS011;38518;53.164;5.430;2022-11-21T01:26:06;31.65;;;22.30;;
51618;SDS011;38518;53.164;5.430;2022-11-21T01:28:34;31.85;;;22.45;;
51618;SDS011;38518;53.164;5.430;2022-11-21T01:31:13;32.83;;;22.27;;
51618;SDS011;38518;53.164;5.430;2022-11-21T01:33:41;31.92;;;21.98;;
51618;SDS011;38518;53.164;5.430;2022-11-21T01:38:47;31.85;;;23.42;;
51618;SDS011;38518;53.164;5.430;2022-11-21T01:41:15;32.50;;;23.02;;
51618;SDS011;38518;53.164;5.430;2022-11-21T01:43:42;32.47;;;22.90;;
51618;SDS011;38518;53.164;5.430;2022-11-21T01:51:13;31.20;;;23.33;;
51618;SDS011;38518;53.164;5.430;2022-11-21T01:54:02;34.95;;;22.48;;
51618;SDS011;38518;53.164;5.430;2022-11-21T01:56:29;31.70;;;28.10;;
51618;SDS011;38518;53.164;5.430;2022-11-21T01:59:21;34.65;;;23.48;;
51618;SDS011;38518;53.164;5.430;2022-11-21T02:01:55;33.95;;;22.45;;
51618;SDS011;38518;53.164;5.430;2022-11-21T02:04:24;34.30;;;22.42;;
51618;SDS011;38518;53.164;5.430;2022-11-21T02:06:53;33.50;;;22.63;;
51618;SDS011;38518;53.164;5.430;2022-11-21T02:09:19;34.83;;;23.27;;
51618;SDS011;38518;53.164;5.430;2022-11-21T02:11:50;32.50;;;22.40;;
51618;SDS011;38518;53.164;5.430;2022-11-21T02:14:19;33.67;;;23.40;;
51618;SDS011;38518;53.164;5.430;2022-11-21T02:16:45;33.53;;;23.25;;
51618;SDS011;38518;53.164;5.430;2022-11-21T02:19:14;36.35;;;24.15;;
51618;SDS011;38518;53.164;5.430;2022-11-21T02:21:59;34.00;;;23.83;;
51618;SDS011;38518;53.164;5.430;2022-11-21T02:24:32;31.02;;;22.98;;
51618;SDS011;38518;53.164;5.430;2022-11-21T02:27:07;33.15;;;22.52;;
51618;SDS011;38518;53.164;5.430;2022-11-21T02:29:34;35.10;;;23.70;;
51618;SDS011;38518;53.164;5.430;2022-11-21T02:32:03;32.72;;;23.17;;
51618;SDS011;38518;53.164;5.430;2022-11-21T02:34:29;33.95;;;22.77;;
51618;SDS011;38518;53.164;5.430;2022-11-21T02:36:56;32.83;;;22.92;;
51618;SDS011;38518;53.164;5.430;2022-11-21T02:39:32;37.15;;;24.52;;
51618;SDS011;38518;53.164;5.430;2022-11-21T02:44:41;32.28;;;22.88;;
51618;SDS011;38518;53.164;5.430;2022-11-21T02:47:16;36.58;;;23.35;;
51618;SDS011;38518;53.164;5.430;2022-11-21T02:49:52;32.85;;;22.55;;
51618;SDS011;38518;53.164;5.430;2022-11-21T02:52:31;34.75;;;23.35;;
51618;SDS011;38518;53.164;5.430;2022-11-21T02:54:57;34.22;;;23.55;;
51618;SDS011;38518;53.164;5.430;2022-11-21T02:57:23;36.05;;;23.13;;
51618;SDS011;38518;53.164;5.430;2022-11-21T02:59:48;34.47;;;22.90;;
51618;SDS011;38518;53.164;5.430;2022-11-21T03:02:14;35.58;;;23.50;;
51618;SDS011;38518;53.164;5.430;2022-11-21T03:04:40;35.47;;;22.77;;
51618;SDS011;38518;53.164;5.430;2022-11-21T03:07:05;35.20;;;22.50;;
51618;SDS011;38518;53.164;5.430;2022-11-21T03:09:31;35.53;;;22.58;;
51618;SDS011;38518;53.164;5.430;2022-11-21T03:11:57;35.80;;;22.73;;
51618;SDS011;38518;53.164;5.430;2022-11-21T03:14:22;35.10;;;22.83;;
51618;SDS011;38518;53.164;5.430;2022-11-21T03:16:48;37.58;;;23.65;;
51618;SDS011;38518;53.164;5.430;2022-11-21T03:19:14;37.55;;;23.25;;
51618;SDS011;38518;53.164;5.430;2022-11-21T03:21:39;34.88;;;23.52;;
51618;SDS011;38518;53.164;5.430;2022-11-21T03:24:05;36.88;;;23.63;;
51618;SDS011;38518;53.164;5.430;2022-11-21T03:26:31;37.20;;;24.17;;
51618;SDS011;38518;53.164;5.430;2022-11-21T03:28:57;38.55;;;25.08;;
51618;SDS011;38518;53.164;5.430;2022-11-21T03:31:22;37.60;;;23.33;;
51618;SDS011;38518;53.164;5.430;2022-11-21T03:33:48;35.47;;;23.52;;
51618;SDS011;38518;53.164;5.430;2022-11-21T03:36:14;39.42;;;23.83;;
51618;SDS011;38518;53.164;5.430;2022-11-21T03:38:39;38.17;;;25.25;;
51618;SDS011;38518;53.164;5.430;2022-11-21T03:41:05;37.55;;;25.10;;
51618;SDS011;38518;53.164;5.430;2022-11-21T03:43:53;40.55;;;25.85;;
51618;SDS011;38518;53.164;5.430;2022-11-21T03:46:30;39.05;;;25.05;;
51618;SDS011;38518;53.164;5.430;2022-11-21T03:48:58;37.28;;;25.42;;
51618;SDS011;38518;53.164;5.430;2022-11-21T03:51:24;42.20;;;25.42;;
51618;SDS011;38518;53.164;5.430;2022-11-21T03:53:50;44.45;;;26.95;;
51618;SDS011;38518;53.164;5.430;2022-11-21T03:56:18;40.63;;;25.23;;
51618;SDS011;38518;53.164;5.430;2022-11-21T03:58:43;40.35;;;26.60;;
51618;SDS011;38518;53.164;5.430;2022-11-21T04:01:09;41.00;;;27.05;;
51618;SDS011;38518;53.164;5.430;2022-11-21T04:03:38;39.33;;;25.17;;
51618;SDS011;38518;53.164;5.430;2022-11-21T04:06:04;40.30;;;24.77;;
51618;SDS011;38518;53.164;5.430;2022-11-21T04:08:30;45.95;;;27.27;;
51618;SDS011;38518;53.164;5.430;2022-11-21T04:10:56;42.70;;;24.55;;
51618;SDS011;38518;53.164;5.430;2022-11-21T04:13:22;42.78;;;25.77;;
51618;SDS011;38518;53.164;5.430;2022-11-21T04:15:48;39.95;;;23.85;;
51618;SDS011;38518;53.164;5.430;2022-11-21T04:18:14;35.72;;;23.98;;
51618;SDS011;38518;53.164;5.430;2022-11-21T04:20:40;38.90;;;24.23;;
51618;SDS011;38518;53.164;5.430;2022-11-21T04:23:06;41.72;;;24.50;;
51618;SDS011;38518;53.164;5.430;2022-11-21T04:25:32;38.30;;;23.77;;
51618;SDS011;38518;53.164;5.430;2022-11-21T04:27:58;39.70;;;23.25;;
51618;SDS011;38518;53.164;5.430;2022-11-21T04:30:25;38.30;;;22.92;;
51618;SDS011;38518;53.164;5.430;2022-11-21T04:32:51;40.45;;;23.98;;
51618;SDS011;38518;53.164;5.430;2022-11-21T04:35:21;40.30;;;24.00;;
51618;SDS011;38518;53.164;5.430;2022-11-21T04:37:48;35.72;;;22.65;;
51618;SDS011;38518;53.164;5.430;2022-11-21T04:40:14;38.85;;;22.95;;
51618;SDS011;38518;53.164;5.430;2022-11-21T04:42:41;40.53;;;24.00;;
51618;SDS011;38518;53.164;5.430;2022-11-21T04:45:07;42.90;;;24.38;;
51618;SDS011;38518;53.164;5.430;2022-11-21T04:47:37;40.25;;;24.42;;
51618;SDS011;38518;53.164;5.430;2022-11-21T04:50:04;48.70;;;26.35;;
51618;SDS011;38518;53.164;5.430;2022-11-21T04:52:30;46.85;;;26.23;;
51618;SDS011;38518;53.164;5.430;2022-11-21T04:54:56;45.17;;;26.42;;
51618;SDS011;38518;53.164;5.430;2022-11-21T04:57:22;49.95;;;27.20;;
51618;SDS011;38518;53.164;5.430;2022-11-21T04:59:48;48.10;;;25.75;;
51618;SDS011;38518;53.164;5.430;2022-11-21T05:02:13;43.47;;;23.98;;
51618;SDS011;38518;53.164;5.430;2022-11-21T05:04:39;44.72;;;24.85;;
51618;SDS011;38518;53.164;5.430;2022-11-21T05:07:05;41.45;;;23.48;;
51618;SDS011;38518;53.164;5.430;2022-11-21T05:09:30;37.75;;;20.50;;
51618;SDS011;38518;53.164;5.430;2022-11-21T05:11:56;37.20;;;19.63;;
51618;SDS011;38518;53.164;5.430;2022-11-21T05:14:40;39.67;;;21.73;;
51618;SDS011;38518;53.164;5.430;2022-11-21T05:17:06;41.25;;;20.25;;
51618;SDS011;38518;53.164;5.430;2022-11-21T05:19:32;38.83;;;20.98;;
51618;SDS011;38518;53.164;5.430;2022-11-21T05:21:57;41.70;;;21.23;;
51618;SDS011;38518;53.164;5.430;2022-11-21T05:24:23;39.67;;;19.33;;
51618;SDS011;38518;53.164;5.430;2022-11-21T05:26:49;36.72;;;18.88;;
51618;SDS011;38518;53.164;5.430;2022-11-21T05:29:14;39.15;;;20.23;;
51618;SDS011;38518;53.164;5.430;2022-11-21T05:31:40;36.30;;;18.35;;
51618;SDS011;38518;53.164;5.430;2022-11-21T05:34:06;39.28;;;26.98;;
51618;SDS011;38518;53.164;5.430;2022-11-21T05:36:31;40.70;;;18.90;;
51618;SDS011;38518;53.164;5.430;2022-11-21T05:38:57;44.35;;;27.92;;
51618;SDS011;38518;53.164;5.430;2022-11-21T05:41:23;38.05;;;19.63;;
51618;SDS011;38518;53.164;5.430;2022-11-21T05:43:48;35.30;;;19.25;;
51618;SDS011;38518;53.164;5.430;2022-11-21T05:46:18;34.85;;;17.60;;
51618;SDS011;38518;53.164;5.430;2022-11-21T05:48:46;41.30;;;26.80;;
51618;SDS011;38518;53.164;5.430;2022-11-21T05:51:16;36.60;;;18.13;;
51618;SDS011;38518;53.164;5.430;2022-11-21T05:53:42;37.33;;;19.02;;
51618;SDS011;38518;53.164;5.430;2022-11-21T05:56:13;39.80;;;18.70;;
51618;SDS011;38518;53.164;5.430;2022-11-21T05:58:41;37.50;;;18.33;;
51618;SDS011;38518;53.164;5.430;2022-11-21T06:01:08;36.88;;;18.65;;
51618;SDS011;38518;53.164;5.430;2022-11-21T06:03:36;37.60;;;19.27;;
51618;SDS011;38518;53.164;5.430;2022-11-21T06:08:30;35.95;;;18.00;;
51618;SDS011;38518;53.164;5.430;2022-11-21T06:10:57;34.63;;;17.92;;
51618;SDS011;38518;53.164;5.430;2022-11-21T06:13:23;41.85;;;20.15;;
51618;SDS011;38518;53.164;5.430;2022-11-21T06:18:33;31.33;;;17.48;;
51618;SDS011;38518;53.164;5.430;2022-11-21T06:21:07;36.75;;;17.95;;
51618;SDS011;38518;53.164;5.430;2022-11-21T06:23:36;41.83;;;19.15;;
51618;SDS011;38518;53.164;5.430;2022-11-21T06:26:02;41.72;;;25.73;;
51618;SDS011;38518;53.164;5.430;2022-11-21T06:28:30;37.38;;;19.90;;
51618;SDS011;38518;53.164;5.430;2022-11-21T06:31:04;42.90;;;19.60;;
51618;SDS011;38518;53.164;5.430;2022-11-21T06:33:30;34.00;;;17.02;;
51618;SDS011;38518;53.164;5.430;2022-11-21T06:35:56;38.67;;;17.85;;
51618;SDS011;38518;53.164;5.430;2022-11-21T06:38:22;38.15;;;18.67;;
51618;SDS011;38518;53.164;5.430;2022-11-21T06:40:47;39.83;;;17.85;;
51618;SDS011;38518;53.164;5.430;2022-11-21T06:43:13;42.47;;;17.23;;
51618;SDS011;38518;53.164;5.430;2022-11-21T06:45:39;40.20;;;17.83;;
51618;SDS011;38518;53.164;5.430;2022-11-21T06:48:04;40.33;;;18.10;;
51618;SDS011;38518;53.164;5.430;2022-11-21T06:50:30;45.33;;;18.90;;
51618;SDS011;38518;53.164;5.430;2022-11-21T06:52:57;92.57;;;30.63;;
51618;SDS011;38518;53.164;5.430;2022-11-21T06:55:23;79.22;;;20.15;;
51618;SDS011;38518;53.164;5.430;2022-11-21T06:57:50;44.83;;;17.23;;
51618;SDS011;38518;53.164;5.430;2022-11-21T07:00:16;99.88;;;19.63;;
51618;SDS011;38518;53.164;5.430;2022-11-21T07:02:42;82.88;;;19.88;;
51618;SDS011;38518;53.164;5.430;2022-11-21T07:05:07;74.35;;;19.83;;
51618;SDS011;38518;53.164;5.430;2022-11-21T07:07:33;88.47;;;32.70;;
51618;SDS011;38518;53.164;5.430;2022-11-21T07:09:59;53.90;;;18.95;;
51618;SDS011;38518;53.164;5.430;2022-11-21T07:12:25;77.35;;;16.50;;
51618;SDS011;38518;53.164;5.430;2022-11-21T07:15:09;73.90;;;18.30;;
51618;SDS011;38518;53.164;5.430;2022-11-21T07:17:35;109.63;;;19.60;;
51618;SDS011;38518;53.164;5.430;2022-11-21T07:20:00;87.38;;;19.70;;
51618;SDS011;38518;53.164;5.430;2022-11-21T07:22:26;99.97;;;21.20;;
51618;SDS011;38518;53.164;5.430;2022-11-21T07:24:52;84.43;;;19.45;;
51618;SDS011;38518;53.164;5.430;2022-11-21T07:27:17;94.18;;;19.80;;
51618;SDS011;38518;53.164;5.430;2022-11-21T07:29:43;79.55;;;21.10;;
51618;SDS011;38518;53.164;5.430;2022-11-21T07:32:09;72.70;;;19.80;;
51618;SDS011;38518;53.164;5.430;2022-11-21T07:34:34;59.83;;;17.48;;
51618;SDS011;38518;53.164;5.430;2022-11-21T07:37:00;67.28;;;17.30;;
51618;SDS011;38518;53.164;5.430;2022-11-21T07:39:26;81.13;;;20.48;;
51618;SDS011;38518;53.164;5.430;2022-11-21T07:41:51;153.05;;;25.60;;
51618;SDS011;38518;53.164;5.430;2022-11-21T07:44:17;121.03;;;22.95;;
51618;SDS011;38518;53.164;5.430;2022-11-21T07:46:43;141.82;;;22.23;;
51618;SDS011;38518;53.164;5.430;2022-11-21T07:49:08;79.35;;;20.13;;
51618;SDS011;38518;53.164;5.430;2022-11-21T07:51:34;62.30;;;20.27;;
51618;SDS011;38518;53.164;5.430;2022-11-21T07:54:00;77.78;;;31.20;;
51618;SDS011;38518;53.164;5.430;2022-11-21T07:56:25;88.47;;;23.27;;
51618;SDS011;38518;53.164;5.430;2022-11-21T07:58:51;50.22;;;18.48;;
51618;SDS011;38518;53.164;5.430;2022-11-21T08:01:17;68.53;;;20.15;;
51618;SDS011;38518;53.164;5.430;2022-11-21T08:03:43;56.40;;;21.30;;
51618;SDS011;38518;53.164;5.430;2022-11-21T08:06:09;78.55;;;22.75;;
51618;SDS011;38518;53.164;5.430;2022-11-21T08:08:36;48.67;;;19.27;;
51618;SDS011;38518;53.164;5.430;2022-11-21T08:11:03;54.60;;;18.50;;
51618;SDS011;38518;53.164;5.430;2022-11-21T08:13:29;46.70;;;18.65;;
51618;SDS011;38518;53.164;5.430;2022-11-21T08:15:56;35.63;;;17.58;;
51618;SDS011;38518;53.164;5.430;2022-11-21T08:18:22;33.53;;;16.02;;
51618;SDS011;38518;53.164;5.430;2022-11-21T08:20:48;29.50;;;21.00;;
51618;SDS011;38518;53.164;5.430;2022-11-21T08:23:13;25.95;;;13.68;;
51618;SDS011;38518;53.164;5.430;2022-11-21T08:25:40;25.00;;;13.30;;
51618;SDS011;38518;53.164;5.430;2022-11-21T08:28:07;26.05;;;12.90;;
51618;SDS011;38518;53.164;5.430;2022-11-21T08:30:34;27.27;;;14.43;;
51618;SDS011;38518;53.164;5.430;2022-11-21T08:33:00;32.22;;;14.70;;
51618;SDS011;38518;53.164;5.430;2022-11-21T08:35:27;32.58;;;22.45;;
51618;SDS011;38518;53.164;5.430;2022-11-21T08:37:56;27.02;;;13.82;;
51618;SDS011;38518;53.164;5.430;2022-11-21T08:40:23;32.00;;;14.70;;
51618;SDS011;38518;53.164;5.430;2022-11-21T08:45:22;31.27;;;21.38;;
51618;SDS011;38518;53.164;5.430;2022-11-21T08:47:47;24.33;;;13.65;;
51618;SDS011;38518;53.164;5.430;2022-11-21T08:50:14;23.85;;;13.48;;
51618;SDS011;38518;53.164;5.430;2022-11-21T08:52:39;29.65;;;15.07;;
51618;SDS011;38518;53.164;5.430;2022-11-21T08:55:05;29.02;;;15.13;;
51618;SDS011;38518;53.164;5.430;2022-11-21T08:57:36;23.35;;;12.90;;
51618;SDS011;38518;53.164;5.430;2022-11-21T09:00:02;28.70;;;20.08;;
51618;SDS011;38518;53.164;5.430;2022-11-21T09:02:28;27.88;;;14.63;;
51618;SDS011;38518;53.164;5.430;2022-11-21T09:04:54;30.95;;;21.40;;
51618;SDS011;38518;53.164;5.430;2022-11-21T09:07:19;25.48;;;13.15;;
51618;SDS011;38518;53.164;5.430;2022-11-21T09:09:45;26.58;;;13.70;;
51618;SDS011;38518;53.164;5.430;2022-11-21T09:12:11;22.00;;;12.98;;
51618;SDS011;38518;53.164;5.430;2022-11-21T09:14:37;21.48;;;17.05;;
51618;SDS011;38518;53.164;5.430;2022-11-21T09:17:21;23.88;;;13.27;;
51618;SDS011;38518;53.164;5.430;2022-11-21T09:20:05;24.27;;;19.73;;
51618;SDS011;38518;53.164;5.430;2022-11-21T09:22:33;23.73;;;13.63;;
51618;SDS011;38518;53.164;5.430;2022-11-21T09:24:59;19.17;;;12.48;;
51618;SDS011;38518;53.164;5.430;2022-11-21T09:27:25;21.60;;;13.45;;
51618;SDS011;38518;53.164;5.430;2022-11-21T09:29:51;19.25;;;12.48;;
51618;SDS011;38518;53.164;5.430;2022-11-21T09:32:16;20.02;;;13.60;;
51618;SDS011;38518;53.164;5.430;2022-11-21T09:34:42;22.13;;;13.90;;
51618;SDS011;38518;53.164;5.430;2022-11-21T09:37:08;23.40;;;14.98;;
51618;SDS011;38518;53.164;5.430;2022-11-21T09:39:33;24.45;;;15.20;;
51618;SDS011;38518;53.164;5.430;2022-11-21T09:47:22;21.67;;;18.58;;
51618;SDS011;38518;53.164;5.430;2022-11-21T09:56:05;22.77;;;13.50;;
51618;SDS011;38518;53.164;5.430;2022-11-21T10:01:24;23.27;;;15.35;;
51618;SDS011;38518;53.164;5.430;2022-11-21T10:03:52;22.95;;;14.57;;
51618;SDS011;38518;53.164;5.430;2022-11-21T10:06:23;23.38;;;14.43;;
51618;SDS011;38518;53.164;5.430;2022-11-21T10:14:31;23.67;;;14.75;;
51618;SDS011;38518;53.164;5.430;2022-11-21T10:20:14;22.10;;;14.55;;
51618;SDS011;38518;53.164;5.430;2022-11-21T10:25:24;20.35;;;14.13;;
51618;SDS011;38518;53.164;5.430;2022-11-21T10:27:56;19.70;;;13.32;;
51618;SDS011;38518;53.164;5.430;2022-11-21T10:30:31;19.38;;;16.13;;
51618;SDS011;38518;53.164;5.430;2022-11-21T10:33:00;19.73;;;12.70;;
51618;SDS011;38518;53.164;5.430;2022-11-21T10:35:38;22.13;;;13.63;;
51618;SDS011;38518;53.164;5.430;2022-11-21T10:38:24;21.98;;;13.40;;
51618;SDS011;38518;53.164;5.430;2022-11-21T10:41:03;20.33;;;13.45;;
51618;SDS011;38518;53.164;5.430;2022-11-21T10:46:57;21.42;;;14.15;;
51618;SDS011;38518;53.164;5.430;2022-11-21T10:49:24;20.48;;;13.55;;
51618;SDS011;38518;53.164;5.430;2022-11-21T10:57:28;20.70;;;14.15;;
51618;SDS011;38518;53.164;5.430;2022-11-21T11:00:02;21.55;;;14.02;;
51618;SDS011;38518;53.164;5.430;2022-11-21T11:02:41;20.70;;;14.18;;
51618;SDS011;38518;53.164;5.430;2022-11-21T11:05:27;20.70;;;13.82;;
51618;SDS011;38518;53.164;5.430;2022-11-21T11:08:02;20.77;;;17.55;;
51618;SDS011;38518;53.164;5.430;2022-11-21T11:10:39;20.33;;;13.45;;
51618;SDS011;38518;53.164;5.430;2022-11-21T11:13:25;20.88;;;13.30;;
51618;SDS011;38518;53.164;5.430;2022-11-21T11:16:02;19.80;;;12.93;;
51618;SDS011;38518;53.164;5.430;2022-11-21T11:18:30;22.65;;;14.52;;
51618;SDS011;38518;53.164;5.430;2022-11-21T11:21:12;19.70;;;13.70;;
51618;SDS011;38518;53.164;5.430;2022-11-21T11:23:41;20.85;;;14.48;;
51618;SDS011;38518;53.164;5.430;2022-11-21T11:26:17;22.27;;;14.30;;
51618;SDS011;38518;53.164;5.430;2022-11-21T11:28:48;19.58;;;12.75;;
51618;SDS011;38518;53.164;5.430;2022-11-21T11:31:14;21.33;;;17.88;;
51618;SDS011;38518;53.164;5.430;2022-11-21T11:33:42;20.63;;;14.15;;
51618;SDS011;38518;53.164;5.430;2022-11-21T11:36:21;20.05;;;14.00;;
51618;SDS011;38518;53.164;5.430;2022-11-21T11:39:03;20.88;;;13.73;;
51618;SDS011;38518;53.164;5.430;2022-11-21T11:48:30;24.00;;;14.93;;
51618;SDS011;38518;53.164;5.430;2022-11-21T11:50:52;24.33;;;16.60;;
51618;SDS011;38518;53.164;5.430;2022-11-21T11:53:36;25.48;;;19.75;;
51618;SDS011;38518;53.164;5.430;2022-11-21T11:56:12;24.63;;;16.00;;
51618;SDS011;38518;53.164;5.430;2022-11-21T12:01:37;21.30;;;15.23;;
51618;SDS011;38518;53.164;5.430;2022-11-21T12:04:24;25.17;;;17.35;;
51618;SDS011;38518;53.164;5.430;2022-11-21T12:12:35;25.85;;;16.27;;
51618;SDS011;38518;53.164;5.430;2022-11-21T12:15:20;25.15;;;16.67;;
51618;SDS011;38518;53.164;5.430;2022-11-21T12:23:30;27.05;;;16.95;;
51618;SDS011;38518;53.164;5.430;2022-11-21T12:31:24;23.65;;;14.68;;
51618;SDS011;38518;53.164;5.430;2022-11-21T12:34:17;23.02;;;15.70;;
51618;SDS011;38518;53.164;5.430;2022-11-21T12:42:25;23.10;;;15.98;;
51618;SDS011;38518;53.164;5.430;2022-11-21T12:45:25;23.95;;;15.65;;
51618;SDS011;38518;53.164;5.430;2022-11-21T12:54:04;23.60;;;19.02;;
51618;SDS011;38518;53.164;5.430;2022-11-21T12:59:40;27.10;;;17.27;;
51618;SDS011;38518;53.164;5.430;2022-11-21T13:05:08;28.23;;;18.73;;
51618;SDS011;38518;53.164;5.430;2022-11-21T13:07:38;28.60;;;17.63;;
51618;SDS011;38518;53.164;5.430;2022-11-21T13:10:09;27.35;;;22.20;;
51618;SDS011;38518;53.164;5.430;2022-11-21T13:12:49;28.50;;;18.52;;
51618;SDS011;38518;53.164;5.430;2022-11-21T13:18:34;26.30;;;16.42;;
51618;SDS011;38518;53.164;5.430;2022-11-21T13:21:12;26.17;;;17.33;;
51618;SDS011;38518;53.164;5.430;2022-11-21T13:24:09;27.88;;;17.85;;
51618;SDS011;38518;53.164;5.430;2022-11-21T13:29:10;32.53;;;22.35;;
51618;SDS011;38518;53.164;5.430;2022-11-21T13:31:38;33.75;;;20.80;;
51618;SDS011;38518;53.164;5.430;2022-11-21T13:37:08;31.75;;;18.60;;
51618;SDS011;38518;53.164;5.430;2022-11-21T13:39:53;36.22;;;19.73;;
51618;SDS011;38518;53.164;5.430;2022-11-21T13:48:25;36.40;;;20.77;;
51618;SDS011;38518;53.164;5.430;2022-11-21T13:54:31;48.80;;;23.20;;
51618;SDS011;38518;53.164;5.430;2022-11-21T13:57:04;49.13;;;28.95;;
51618;SDS011;38518;53.164;5.430;2022-11-21T14:05:18;49.53;;;22.35;;
51618;SDS011;38518;53.164;5.430;2022-11-21T14:08:21;50.30;;;27.55;;
51618;SDS011;38518;53.164;5.430;2022-11-21T14:10:51;44.80;;;21.63;;
51618;SDS011;38518;53.164;5.430;2022-11-21T14:13:28;53.55;;;27.52;;
51618;SDS011;38518;53.164;5.430;2022-11-21T14:18:51;46.15;;;20.73;;
51618;SDS011;38518;53.164;5.430;2022-11-21T14:21:25;49.67;;;19.88;;
51618;SDS011;38518;53.164;5.430;2022-11-21T14:23:57;47.70;;;28.25;;
51618;SDS011;38518;53.164;5.430;2022-11-21T14:26:29;52.20;;;23.30;;
51618;SDS011;38518;53.164;5.430;2022-11-21T14:34:22;51.50;;;20.50;;
51618;SDS011;38518;53.164;5.430;2022-11-21T14:36:53;36.20;;;19.48;;
51618;SDS011;38518;53.164;5.430;2022-11-21T14:39:21;61.53;;;27.50;;
51618;SDS011;38518;53.164;5.430;2022-11-21T14:41:50;44.53;;;25.25;;
51618;SDS011;38518;53.164;5.430;2022-11-21T14:44:19;54.15;;;18.70;;
51618;SDS011;38518;53.164;5.430;2022-11-21T14:46:46;41.88;;;20.23;;
51618;SDS011;38518;53.164;5.430;2022-11-21T14:51:45;44.03;;;20.85;;
51618;SDS011;38518;53.164;5.430;2022-11-21T14:54:13;76.60;;;32.22;;
51618;SDS011;38518;53.164;5.430;2022-11-21T14:56:42;39.95;;;18.77;;
51618;SDS011;38518;53.164;5.430;2022-11-21T14:59:19;47.70;;;21.02;;
51618;SDS011;38518;53.164;5.430;2022-11-21T15:01:56;52.22;;;22.95;;
51618;SDS011;38518;53.164;5.430;2022-11-21T15:04:35;42.42;;;16.88;;
51618;SDS011;38518;53.164;5.430;2022-11-21T15:07:01;52.05;;;26.38;;
51618;SDS011;38518;53.164;5.430;2022-11-21T15:09:28;44.85;;;19.42;;
51618;SDS011;38518;53.164;5.430;2022-11-21T15:12:02;47.00;;;18.63;;
51618;SDS011;38518;53.164;5.430;2022-11-21T15:19:36;52.85;;;19.35;;
51618;SDS011;38518;53.164;5.430;2022-11-21T15:22:01;72.68;;;21.85;;
51618;SDS011;38518;53.164;5.430;2022-11-21T15:24:36;61.08;;;21.85;;
51618;SDS011;38518;53.164;5.430;2022-11-21T15:36:17;76.97;;;24.05;;
51618;SDS011;38518;53.164;5.430;2022-11-21T15:38:48;57.03;;;20.17;;
51618;SDS011;38518;53.164;5.430;2022-11-21T15:43:50;54.13;;;20.65;;
51618;SDS011;38518;53.164;5.430;2022-11-21T15:46:38;88.07;;;20.25;;
51618;SDS011;38518;53.164;5.430;2022-11-21T15:49:11;75.47;;;21.27;;
51618;SDS011;38518;53.164;5.430;2022-11-21T15:51:41;78.82;;;21.45;;
51618;SDS011;38518;53.164;5.430;2022-11-21T15:54:18;54.97;;;20.38;;
51618;SDS011;38518;53.164;5.430;2022-11-21T15:56:45;71.55;;;21.88;;
51618;SDS011;38518;53.164;5.430;2022-11-21T15:59:11;93.75;;;24.02;;
51618;SDS011;38518;53.164;5.430;2022-11-21T16:01:38;67.78;;;19.17;;
51618;SDS011;38518;53.164;5.430;2022-11-21T16:04:05;48.60;;;17.77;;
51618;SDS011;38518;53.164;5.430;2022-11-21T16:06:32;118.57;;;34.17;;
51618;SDS011;38518;53.164;5.430;2022-11-21T16:08:59;71.53;;;21.13;;
51618;SDS011;38518;53.164;5.430;2022-11-21T16:11:29;52.58;;;21.02;;
51618;SDS011;38518;53.164;5.430;2022-11-21T16:13:57;63.50;;;21.80;;
51618;SDS011;38518;53.164;5.430;2022-11-21T16:16:25;115.63;;;34.67;;
51618;SDS011;38518;53.164;5.430;2022-11-21T16:18:54;52.85;;;19.00;;
51618;SDS011;38518;53.164;5.430;2022-11-21T16:21:20;54.47;;;21.50;;
51618;SDS011;38518;53.164;5.430;2022-11-21T16:23:46;72.18;;;35.08;;
51618;SDS011;38518;53.164;5.430;2022-11-21T16:26:12;41.28;;;18.75;;
51618;SDS011;38518;53.164;5.430;2022-11-21T16:28:38;61.45;;;23.55;;
51618;SDS011;38518;53.164;5.430;2022-11-21T16:31:04;49.10;;;20.95;;
51618;SDS011;38518;53.164;5.430;2022-11-21T16:33:30;57.63;;;24.25;;
51618;SDS011;38518;53.164;5.430;2022-11-21T16:35:57;53.53;;;21.67;;
51618;SDS011;38518;53.164;5.430;2022-11-21T16:38:24;52.08;;;22.52;;
51618;SDS011;38518;53.164;5.430;2022-11-21T16:41:00;50.05;;;22.20;;
51618;SDS011;38518;53.164;5.430;2022-11-21T16:43:28;61.17;;;23.98;;
51618;SDS011;38518;53.164;5.430;2022-11-21T16:45:54;55.80;;;23.13;;
51618;SDS011;38518;53.164;5.430;2022-11-21T16:48:29;67.38;;;26.50;;
51618;SDS011;38518;53.164;5.430;2022-11-21T16:50:57;57.15;;;24.98;;
51618;SDS011;38518;53.164;5.430;2022-11-21T16:53:37;75.85;;;35.20;;
51618;SDS011;38518;53.164;5.430;2022-11-21T16:56:03;60.80;;;25.33;;
51618;SDS011;38518;53.164;5.430;2022-11-21T16:58:29;46.67;;;20.83;;
51618;SDS011;38518;53.164;5.430;2022-11-21T17:00:54;81.53;;;37.75;;